Time;durP1;ratioP1;P1;durP2;ratioP2;P2;SDS_P1;SDS_P2;PMS_P1;PMS_P2;Temp;Humidity;BMP_temperature;BMP_pressure;BME280_temperature;BME280_humidity;BME280_pressure;Samples;Min_cycle;Max_cycle;Signal;HPM_P1;HPM_P2
2022/08/14 00:00:22;;;;;;;11.60;10.40;;;;;;;20.91;85.88;94341.59;5055290;28;20480;-79
2022/08/14 00:02:50;;;;;;;13.23;10.40;;;;;;;20.90;85.77;94332.75;5055051;28;20446;-79
2022/08/14 00:05:19;;;;;;;12.13;10.87;;;;;;;20.98;85.92;94339.72;5055140;28;20437;-79
2022/08/14 00:07:48;;;;;;;11.47;10.27;;;;;;;20.99;85.28;94330.69;5054909;28;20459;-78
2022/08/14 00:10:17;;;;;;;12.97;10.10;;;;;;;20.97;84.87;94327.41;5054854;28;20437;-78
2022/08/14 00:12:47;;;;;;;14.47;10.77;;;;;;;20.83;85.08;94323.97;5055128;28;20458;-79
2022/08/14 00:15:16;;;;;;;12.03;10.63;;;;;;;20.84;85.63;94322.94;5054873;28;20493;-79
2022/08/14 00:17:44;;;;;;;12.97;11.57;;;;;;;20.89;85.95;94325.78;5054489;28;20454;-79
2022/08/14 00:20:12;;;;;;;12.73;11.43;;;;;;;20.95;85.94;94324.13;5054859;28;20450;-79
2022/08/14 00:22:40;;;;;;;11.30;10.40;;;;;;;20.98;85.82;94307.72;5054638;28;20449;-78
2022/08/14 00:25:09;;;;;;;13.27;11.80;;;;;;;21.01;85.80;94317.97;5054199;28;20458;-79
2022/08/14 00:27:36;;;;;;;10.40;9.40;;;;;;;21.07;85.30;94326.97;5054377;28;20449;-79
2022/08/14 00:30:06;;;;;;;11.77;10.57;;;;;;;21.09;84.81;94324.91;5054494;28;20825;-78
2022/08/14 00:32:33;;;;;;;12.83;11.57;;;;;;;21.10;85.11;94323.88;5054343;28;20445;-79
2022/08/14 00:35:00;;;;;;;19.00;11.07;;;;;;;21.09;85.51;94315.06;5054307;28;20512;-78
2022/08/14 00:37:29;;;;;;;11.63;10.43;;;;;;;21.08;86.24;94329.44;5054748;28;20535;-79
2022/08/14 00:39:56;;;;;;;13.70;11.73;;;;;;;21.07;86.55;94322.47;5035318;28;20430;-79
2022/08/14 00:42:24;;;;;;;13.43;11.40;;;;;;;21.10;86.31;94323.88;5054534;28;20661;-78
2022/08/14 00:44:52;;;;;;;14.33;11.07;;;;;;;21.09;86.06;94320.41;5054424;28;20454;-79
2022/08/14 00:47:20;;;;;;;16.90;11.27;;;;;;;21.10;86.43;94323.88;5054247;28;20491;-79
2022/08/14 00:49:46;;;;;;;14.20;11.30;;;;;;;21.13;86.61;94318.97;5054164;28;20453;-79
2022/08/14 00:52:16;;;;;;;13.30;11.53;;;;;;;21.13;86.45;94315.50;5053897;28;20548;-79
2022/08/14 00:54:45;;;;;;;17.80;11.07;;;;;;;21.14;86.10;94312.63;5054052;28;20562;-79
2022/08/14 00:57:12;;;;;;;16.63;10.60;;;;;;;21.18;85.02;94308.50;5053974;28;20449;-79
2022/08/14 00:59:40;;;;;;;16.00;10.03;;;;;;;21.18;84.73;94303.16;5053683;28;20848;-78
2022/08/14 01:02:06;;;;;;;17.03;10.83;;;;;;;21.22;84.77;94298.22;5053772;28;20980;-78
2022/08/14 01:04:35;;;;;;;15.30;8.80;;;;;;;21.18;84.98;94297.81;5053557;28;20453;-78
2022/08/14 01:07:01;;;;;;;11.87;10.77;;;;;;;21.09;83.79;94291.06;5053629;28;20472;-79
2022/08/14 01:09:30;;;;;;;14.33;10.17;;;;;;;20.91;84.32;94298.91;5054024;28;20446;-79
2022/08/14 01:11:59;;;;;;;12.00;10.70;;;;;;;20.65;86.21;94299.75;5053852;28;20438;-79
2022/08/14 01:14:25;;;;;;;14.60;10.37;;;;;;;20.60;87.47;94296.88;5053506;28;20996;-78
2022/08/14 01:16:52;;;;;;;12.83;11.53;;;;;;;20.67;87.71;94295.03;5053385;28;20446;-78
2022/08/14 01:22:06;;;;;;;12.17;10.77;;;;;;;20.87;87.10;94295.84;5053490;28;20424;-79
2022/08/14 01:24:35;;;;;;;13.37;10.20;;;;;;;20.91;87.03;94289.06;5053820;28;20454;-79
2022/08/14 01:27:03;;;;;;;11.40;10.20;;;;;;;20.94;86.72;94282.47;5053735;28;20489;-79
2022/08/14 01:29:31;;;;;;;11.50;10.40;;;;;;;21.02;86.28;94280.41;5053259;28;20515;-79
2022/08/14 01:32:00;;;;;;;14.33;10.40;;;;;;;21.08;85.95;94280.59;5053665;28;20495;-79
2022/08/14 01:34:27;;;;;;;11.03;9.73;;;;;;;21.11;86.03;94280.19;5053026;28;20568;-78
2022/08/14 01:36:54;;;;;;;11.03;9.87;;;;;;;21.12;86.21;94277.31;5052618;28;20441;-79
2022/08/14 01:39:25;;;;;;;12.20;10.40;;;;;;;21.13;86.08;94278.97;5053021;28;20459;-78
2022/08/14 01:41:55;;;;;;;13.90;11.50;;;;;;;21.14;85.85;94279.78;5052836;28;20481;-80
2022/08/14 01:44:25;;;;;;;12.07;10.97;;;;;;;21.15;85.74;94284.91;5053255;28;20449;-79
2022/08/14 01:46:55;;;;;;;19.17;11.00;;;;;;;21.15;85.79;94282.25;5053554;28;20450;-78
2022/08/14 01:49:23;;;;;;;13.97;11.00;;;;;;;21.15;85.85;94281.41;5053267;28;20511;-78
2022/08/14 01:51:53;;;;;;;16.37;10.27;;;;;;;21.17;86.23;94290.03;5053105;28;20499;-80
2022/08/14 01:54:22;;;;;;;11.47;10.37;;;;;;;21.21;85.98;94285.91;5052903;28;21071;-78
2022/08/14 01:56:51;;;;;;;11.17;9.80;;;;;;;21.18;85.34;94279.16;5052855;28;20465;-79
2022/08/14 01:59:27;;;;;;;12.40;9.83;;;;;;;21.21;85.11;94278.72;5052395;28;20473;-80
2022/08/14 02:01:57;;;;;;;15.53;11.30;;;;;;;21.21;84.60;94277.91;5052959;28;20511;-80
2022/08/14 02:04:26;;;;;;;11.17;9.97;;;;;;;21.24;84.92;94282.84;5052938;28;20557;-78
2022/08/14 02:06:53;;;;;;;19.60;9.43;;;;;;;21.24;84.91;94275.66;5052559;28;20441;-80
2022/08/14 02:09:21;;;;;;;11.27;10.07;;;;;;;21.25;85.14;94281.81;5052878;28;20446;-79
2022/08/14 02:11:49;;;;;;;10.20;9.27;;;;;;;21.26;85.11;94283.44;5052515;28;20916;-79
2022/08/14 02:14:17;;;;;;;11.00;10.00;;;;;;;21.26;84.41;94276.28;5052575;28;20492;-79
2022/08/14 02:16:47;;;;;;;10.50;9.50;;;;;;;21.25;84.51;94276.47;5052884;28;20477;-78
2022/08/14 02:19:15;;;;;;;13.67;9.70;;;;;;;21.24;84.50;94265.00;5052240;28;20931;-79
2022/08/14 02:21:47;;;;;;;12.90;10.17;;;;;;;21.16;84.62;94261.72;5052430;28;20431;-79
2022/08/14 02:24:15;;;;;;;10.90;9.80;;;;;;;21.19;84.60;94261.28;5052590;28;20452;-78
2022/08/14 02:26:46;;;;;;;10.87;9.87;;;;;;;21.17;84.37;94258.00;5052306;28;20496;-79
2022/08/14 02:29:16;;;;;;;14.33;10.73;;;;;;;21.11;85.04;94264.19;5052665;28;20472;-80
2022/08/14 02:31:49;;;;;;;13.17;10.60;;;;;;;21.05;85.30;94265.81;5052286;28;21004;-79
2022/08/14 02:34:18;;;;;;;11.43;10.33;;;;;;;21.00;85.73;94269.13;5052078;28;20920;-79
2022/08/14 02:36:48;;;;;;;11.67;10.03;;;;;;;20.98;85.59;94263.19;5017038;28;20446;-79
2022/08/14 02:39:15;;;;;;;19.43;10.57;;;;;;;20.93;85.52;94263.00;5052493;28;20450;-79
2022/08/14 02:41:50;;;;;;;11.30;10.10;;;;;;;20.94;86.06;94263.81;5052132;28;20442;-79
2022/08/14 02:44:19;;;;;;;11.13;9.90;;;;;;;20.92;85.96;94265.88;5052263;28;20519;-79
2022/08/14 02:46:48;;;;;;;12.40;10.00;;;;;;;20.91;85.91;94261.56;5052045;28;21003;-79
2022/08/14 02:49:15;;;;;;;16.43;10.03;;;;;;;20.89;85.90;94253.78;5052097;28;20441;-79
2022/08/14 02:51:42;;;;;;;10.70;9.80;;;;;;;20.94;86.09;94253.97;5052333;28;20430;-78
2022/08/14 02:54:09;;;;;;;12.30;10.87;;;;;;;20.94;85.39;94250.47;5051895;28;20438;-78
2022/08/14 02:56:37;;;;;;;10.80;9.80;;;;;;;20.97;85.21;94250.88;5052100;28;20446;-77
2022/08/14 02:59:06;;;;;;;15.97;10.30;;;;;;;20.92;85.22;94248.03;5052309;28;20474;-77
2022/08/14 03:01:35;;;;;;;15.80;10.90;;;;;;;20.96;85.38;94257.25;5052338;28;20444;-80
2022/08/14 03:04:04;;;;;;;10.37;8.80;;;;;;;20.88;85.25;94254.81;5052269;28;20452;-78
2022/08/14 03:06:32;;;;;;;10.83;9.73;;;;;;;20.86;85.53;94248.03;5052027;28;20869;-78
2022/08/14 03:09:00;;;;;;;14.43;10.10;;;;;;;20.89;85.99;94253.78;5052042;28;20684;-78
2022/08/14 03:11:26;;;;;;;11.80;10.57;;;;;;;20.90;85.93;94258.06;5051845;28;20438;-78
2022/08/14 03:13:53;;;;;;;12.97;10.90;;;;;;;20.87;85.87;94261.16;5051734;28;20435;-79
2022/08/14 03:16:22;;;;;;;17.93;10.80;;;;;;;20.90;86.04;94251.94;5051680;28;21022;-79
2022/08/14 03:18:52;;;;;;;11.70;10.40;;;;;;;20.94;86.02;94259.28;5052011;28;20434;-79
2022/08/14 03:21:23;;;;;;;18.43;9.93;;;;;;;21.01;85.44;94261.94;5051763;28;20452;-79
2022/08/14 03:23:59;;;;;;;11.23;10.10;;;;;;;21.03;85.33;94262.56;5051762;28;20464;-78
2022/08/14 03:26:26;;;;;;;11.17;10.03;;;;;;;21.00;85.31;94257.63;5051683;28;20861;-78
2022/08/14 03:28:53;;;;;;;13.23;10.30;;;;;;;21.02;85.06;94261.72;5051685;28;20885;-79
2022/08/14 03:31:22;;;;;;;12.97;10.43;;;;;;;21.03;85.71;94263.38;5051810;28;20446;-79
2022/08/14 03:33:51;;;;;;;13.50;9.60;;;;;;;21.11;85.70;94269.53;5051687;28;20939;-78
2022/08/14 03:36:21;;;;;;;10.70;9.70;;;;;;;21.17;85.72;94274.03;5051491;28;20485;-78
2022/08/14 03:38:51;;;;;;;15.70;11.40;;;;;;;21.22;85.22;94284.88;5051633;28;20485;-78
2022/08/14 03:41:20;;;;;;;17.10;11.53;;;;;;;21.24;84.93;94285.53;5051824;28;20438;-79
2022/08/14 03:43:49;;;;;;;14.27;12.33;;;;;;;21.24;84.85;94286.34;5033028;28;20465;-79
2022/08/14 03:46:17;;;;;;;15.47;11.67;;;;;;;21.23;84.31;94281.19;5051633;28;20450;-79
2022/08/14 03:48:44;;;;;;;21.03;11.50;;;;;;;21.27;84.13;94290.44;5051446;28;20444;-78
2022/08/14 03:51:12;;;;;;;15.70;12.60;;;;;;;21.29;84.29;94293.72;5051587;28;20819;-79
2022/08/14 03:53:46;;;;;;;15.63;12.10;;;;;;;21.29;84.41;94301.72;5051426;28;20999;-78
2022/08/14 03:56:15;;;;;;;12.53;10.93;;;;;;;21.30;84.83;94295.34;5051674;28;20489;-78
2022/08/14 03:58:44;;;;;;;12.10;10.63;;;;;;;21.21;84.32;94286.72;5051501;28;20481;-79
2022/08/14 04:01:11;;;;;;;11.63;10.53;;;;;;;21.20;84.87;94286.94;5053759;28;20488;-78
2022/08/14 04:03:38;;;;;;;12.37;11.17;;;;;;;21.20;85.12;94284.28;5055004;28;20450;-79
2022/08/14 04:06:07;;;;;;;17.03;11.30;;;;;;;21.15;85.21;94292.09;5055305;28;20450;-80
2022/08/14 04:08:35;;;;;;;13.33;11.50;;;;;;;21.12;85.35;94292.50;5020285;28;20449;-79
2022/08/14 04:11:08;;;;;;;11.70;10.50;;;;;;;21.10;85.70;94292.69;5054766;28;20499;-78
2022/08/14 04:13:36;;;;;;;16.57;11.20;;;;;;;21.02;85.45;94293.75;5054838;28;20457;-79
2022/08/14 04:16:05;;;;;;;12.73;10.53;;;;;;;20.95;85.52;94284.94;5020199;28;20508;-78
2022/08/14 04:18:32;;;;;;;10.90;9.90;;;;;;;21.00;85.25;94294.97;5054885;28;20453;-79
2022/08/14 04:20:59;;;;;;;10.80;9.80;;;;;;;20.98;85.46;94291.72;5055068;28;20821;-78
2022/08/14 04:23:26;;;;;;;13.23;10.40;;;;;;;20.95;84.78;94287.59;5054691;28;20571;-79
2022/08/14 04:25:53;;;;;;;10.30;9.30;;;;;;;20.89;85.35;94293.78;5054745;28;20437;-80
2022/08/14 04:28:23;;;;;;;13.33;10.53;;;;;;;20.85;85.53;94292.56;5054611;28;20488;-79
2022/08/14 04:30:49;;;;;;;10.73;9.50;;;;;;;20.86;85.60;94296.88;5019498;28;20933;-79
2022/08/14 04:33:16;;;;;;;11.40;10.40;;;;;;;20.81;85.04;94291.31;5054592;28;20509;-79
2022/08/14 04:35:43;;;;;;;11.20;9.40;;;;;;;20.79;85.43;94285.38;5054206;28;20478;-78
2022/08/14 04:43:41;;;;;;;12.77;11.47;;;;;;;20.88;85.13;94286.81;5054197;28;20789;-79
2022/08/14 04:46:11;;;;;;;12.10;10.40;;;;;;;20.94;85.14;94291.31;5054517;28;20449;-80
2022/08/14 04:48:37;;;;;;;14.73;12.17;;;;;;;20.93;85.33;94291.50;5053947;28;20818;-79
2022/08/14 04:51:06;;;;;;;13.93;11.93;;;;;;;20.97;85.28;94290.06;5018940;28;20485;-79
2022/08/14 04:53:35;;;;;;;13.60;12.20;;;;;;;21.03;85.38;94294.56;5054025;28;20450;-80
2022/08/14 04:56:02;;;;;;;13.87;12.30;;;;;;;21.10;85.36;94283.88;5054352;28;20900;-78
2022/08/14 04:58:32;;;;;;;20.23;14.40;;;;;;;21.17;85.26;94287.34;5054311;28;20473;-79
2022/08/14 05:01:02;;;;;;;17.33;13.50;;;;;;;21.17;85.07;94279.34;5035418;28;20473;-79
2022/08/14 05:03:32;;;;;;;16.43;13.57;;;;;;;21.22;85.00;94282.22;5054062;28;20445;-79
2022/08/14 05:06:01;;;;;;;16.70;14.90;;;;;;;21.29;85.08;94288.38;5053710;28;20450;-78
2022/08/14 05:08:29;;;;;;;18.17;14.87;;;;;;;21.27;84.84;94288.59;5035323;28;20807;-79
2022/08/14 05:10:58;;;;;;;20.57;14.43;;;;;;;21.36;85.30;94288.34;5053887;28;20450;-79
2022/08/14 05:13:27;;;;;;;20.90;16.90;;;;;;;21.39;85.22;94283.41;5052864;28;20446;-79
2022/08/14 05:15:57;;;;;;;18.33;15.67;;;;;;;21.36;85.36;94283.00;5053540;28;20493;-79
2022/08/14 05:18:27;;;;;;;17.37;14.57;;;;;;;21.41;85.40;94289.38;5053589;28;20472;-79
2022/08/14 05:20:55;;;;;;;17.70;15.60;;;;;;;21.36;84.89;94280.34;5053880;28;20982;-78
2022/08/14 05:23:25;;;;;;;26.60;15.73;;;;;;;21.36;84.97;94289.16;5053800;28;20446;-79
2022/08/14 05:25:57;;;;;;;19.57;14.83;;;;;;;21.29;85.04;94288.38;5034654;28;20449;-80
2022/08/14 05:28:26;;;;;;;18.30;13.40;;;;;;;21.30;85.43;94288.16;5053331;28;20448;-79
2022/08/14 05:30:55;;;;;;;20.03;16.87;;;;;;;21.33;85.56;94289.59;5053338;28;20452;-79
2022/08/14 05:33:27;;;;;;;22.60;16.17;;;;;;;21.34;85.52;94291.22;5053047;28;20450;-78
2022/08/14 05:35:59;;;;;;;20.80;16.50;;;;;;;21.32;85.63;94294.09;5053447;28;20476;-79
2022/08/14 05:38:28;;;;;;;20.43;15.03;;;;;;;21.32;85.59;94287.94;5053218;28;20457;-79
2022/08/14 05:40:56;;;;;;;18.50;14.77;;;;;;;21.33;85.94;94290.41;5053180;28;20493;-78
2022/08/14 05:43:23;;;;;;;20.63;16.77;;;;;;;21.31;85.44;94289.78;5053008;28;20864;-79
2022/08/14 05:45:50;;;;;;;18.27;15.03;;;;;;;21.29;85.67;94296.38;5053352;28;20450;-79
2022/08/14 05:48:16;;;;;;;16.10;13.83;;;;;;;21.21;85.88;94286.72;5053289;28;20446;-79
2022/08/14 05:50:45;;;;;;;16.33;13.63;;;;;;;21.28;86.07;94287.56;5053203;28;20446;-79
2022/08/14 05:53:12;;;;;;;15.57;13.70;;;;;;;21.31;86.23;94280.97;5017615;28;20438;-80
2022/08/14 05:55:39;;;;;;;16.87;14.77;;;;;;;21.33;86.62;94284.25;5052544;28;20521;-79
2022/08/14 05:58:08;;;;;;;20.60;14.77;;;;;;;21.44;86.61;94291.63;5052584;28;20480;-79
2022/08/14 06:00:37;;;;;;;16.30;13.70;;;;;;;21.49;86.48;94286.47;5053042;28;20457;-79
2022/08/14 06:03:06;;;;;;;17.60;15.00;;;;;;;21.52;86.21;94287.88;5052535;28;20446;-79
2022/08/14 06:05:34;;;;;;;15.33;13.50;;;;;;;21.59;86.23;94288.66;5052729;28;20947;-79
2022/08/14 06:08:02;;;;;;;19.80;15.70;;;;;;;21.62;85.75;94289.06;5052984;28;20808;-79
2022/08/14 06:10:31;;;;;;;21.40;17.30;;;;;;;21.68;85.67;94298.06;5017832;28;20960;-79
2022/08/14 06:13:00;;;;;;;21.23;17.10;;;;;;;21.73;85.34;94306.28;5033982;28;20438;-79
2022/08/14 06:15:27;;;;;;;18.20;15.57;;;;;;;21.73;85.48;94295.59;5052704;28;20489;-79
2022/08/14 06:17:55;;;;;;;18.70;14.90;;;;;;;21.78;85.34;94298.44;5052723;28;20461;-79
2022/08/14 06:20:23;;;;;;;18.13;14.20;;;;;;;21.80;84.97;94306.25;5052946;28;20457;-79
2022/08/14 06:22:50;;;;;;;22.40;16.53;;;;;;;21.86;84.90;94303.53;5052153;28;20949;-79
2022/08/14 06:25:19;;;;;;;16.53;14.83;;;;;;;21.82;84.74;94294.31;5052856;28;20445;-79
2022/08/14 06:27:47;;;;;;;21.40;16.27;;;;;;;21.90;84.94;94306.59;5052077;28;20940;-77
2022/08/14 06:30:15;;;;;;;18.60;16.63;;;;;;;21.93;85.46;94308.84;5052413;28;20442;-79
2022/08/14 06:32:42;;;;;;;17.17;14.60;;;;;;;21.97;85.64;94315.38;5052288;28;20442;-79
2022/08/14 06:35:11;;;;;;;23.40;17.23;;;;;;;22.03;85.65;94311.88;5052138;28;20450;-79
2022/08/14 06:37:46;;;;;;;24.20;19.33;;;;;;;22.10;84.65;94307.34;5051138;28;20465;-79
2022/08/14 06:40:15;;;;;;;21.67;18.30;;;;;;;22.04;85.25;94313.53;5052014;28;20445;-79
2022/08/14 06:42:43;;;;;;;19.13;16.93;;;;;;;21.64;87.36;94311.03;5048730;28;20827;-79
2022/08/14 06:45:11;;;;;;;19.93;17.77;;;;;;;21.63;87.43;94311.25;5052134;28;20793;-79
2022/08/14 06:47:43;;;;;;;25.23;18.90;;;;;;;21.45;88.13;94303.94;5051960;28;20445;-78
2022/08/14 06:50:12;;;;;;;24.03;18.80;;;;;;;21.34;89.22;94308.06;5052051;28;20451;-78
2022/08/14 06:52:40;;;;;;;23.07;18.33;;;;;;;21.21;90.11;94309.94;5052232;28;20434;-79
2022/08/14 06:55:09;;;;;;;26.60;21.37;;;;;;;20.84;91.79;94314.94;5051839;28;20450;-78
2022/08/14 06:57:38;;;;;;;25.80;19.53;;;;;;;20.53;94.59;94301.38;5051694;28;20493;-79
2022/08/14 07:00:10;;;;;;;28.40;21.27;;;;;;;20.47;95.75;94305.69;5051783;28;20456;-79
2022/08/14 07:08:07;;;;;;;25.73;21.90;;;;;;;20.34;98.81;94306.50;5051913;28;20467;-78
2022/08/14 07:10:34;;;;;;;28.73;21.90;;;;;;;20.34;98.83;94313.66;5051814;28;20940;-79
2022/08/14 07:13:01;;;;;;;29.60;22.07;;;;;;;20.15;99.40;94309.13;5051636;28;20453;-79
2022/08/14 07:15:29;;;;;;;29.93;23.63;;;;;;;20.33;99.52;94314.69;5051690;28;20967;-79
2022/08/14 07:17:56;;;;;;;31.10;25.47;;;;;;;20.54;98.57;94317.19;5051833;28;20445;-79
2022/08/14 07:20:23;;;;;;;34.53;25.57;;;;;;;20.49;98.41;94308.16;5051705;28;20450;-79
2022/08/14 07:22:50;;;;;;;36.97;23.40;;;;;;;20.51;98.81;94316.75;5052052;28;20815;-79
2022/08/14 07:25:16;;;;;;;31.20;21.93;;;;;;;20.50;98.00;94315.94;5051548;28;20488;-78
2022/08/14 07:27:43;;;;;;;39.80;24.17;;;;;;;20.55;98.84;94318.03;5051322;28;20921;-79
2022/08/14 07:30:11;;;;;;;33.40;23.93;;;;;;;20.63;99.17;94315.97;5051539;28;20446;-78
2022/08/14 07:32:39;;;;;;;36.83;26.83;;;;;;;20.61;99.17;94322.53;5051419;28;20452;-79
2022/08/14 07:35:07;;;;;;;33.80;24.40;;;;;;;20.78;98.75;94320.25;5052082;28;20441;-78
2022/08/14 07:37:34;;;;;;;38.77;27.37;;;;;;;20.63;98.04;94315.97;5020356;28;20478;-79
2022/08/14 07:40:02;;;;;;;39.60;24.87;;;;;;;20.12;100.00;94318.34;5055752;28;20442;-79
2022/08/14 07:42:30;;;;;;;35.40;25.93;;;;;;;19.98;100.00;94309.53;5055162;28;20865;-79
2022/08/14 07:44:57;;;;;;;37.13;24.23;;;;;;;19.96;100.00;94316.91;5055078;28;20857;-80
2022/08/14 07:47:24;;;;;;;38.40;24.40;;;;;;;19.87;100.00;94319.91;5055516;28;20453;-79
2022/08/14 07:49:59;;;;;;;34.23;25.20;;;;;;;19.86;100.00;94328.94;5055140;28;20450;-78
2022/08/14 07:52:27;;;;;;;40.90;27.33;;;;;;;20.05;100.00;94323.66;5054801;28;20963;-79
2022/08/14 07:54:54;;;;;;;33.30;23.23;;;;;;;20.13;100.00;94327.16;5055361;28;20465;-79
2022/08/14 07:57:21;;;;;;;36.07;24.40;;;;;;;20.04;100.00;94316.69;5054675;28;20500;-79
2022/08/14 07:59:48;;;;;;;39.50;24.87;;;;;;;20.19;100.00;94324.50;5055207;28;20826;-78
2022/08/14 08:02:17;;;;;;;29.63;23.30;;;;;;;20.21;100.00;94322.44;5055075;28;20553;-79
2022/08/14 08:04:45;;;;;;;33.93;22.80;;;;;;;20.28;100.00;94330.47;5054818;28;20454;-79
2022/08/14 08:07:14;;;;;;;31.63;23.73;;;;;;;20.29;100.00;94322.28;5055028;28;20469;-79
2022/08/14 08:09:45;;;;;;;27.10;20.57;;;;;;;20.28;100.00;94328.63;5054665;28;20450;-78
2022/08/14 08:12:14;;;;;;;28.40;20.23;;;;;;;20.30;99.94;94320.44;5054788;28;20453;-79
2022/08/14 08:14:42;;;;;;;20.37;18.17;;;;;;;20.45;99.70;94318.41;5054895;28;20448;-78
2022/08/14 08:17:09;;;;;;;34.73;21.30;;;;;;;20.56;99.47;94317.00;5054565;28;20481;-78
2022/08/14 08:19:38;;;;;;;28.23;19.67;;;;;;;20.74;99.31;94314.50;5054472;28;20456;-77
2022/08/14 08:22:05;;;;;;;20.90;17.87;;;;;;;20.82;95.78;94313.50;5054860;28;20880;-78
2022/08/14 08:24:34;;;;;;;27.20;20.20;;;;;;;20.97;97.04;94316.75;5054567;28;20455;-78
2022/08/14 08:27:01;;;;;;;20.50;17.43;;;;;;;21.08;96.76;94315.28;5054811;28;20526;-79
2022/08/14 08:29:28;;;;;;;20.80;17.47;;;;;;;21.18;96.95;94300.50;5054343;28;20823;-78
2022/08/14 08:31:55;;;;;;;27.10;19.07;;;;;;;21.38;95.66;94316.47;5054227;28;20445;-79
2022/08/14 08:34:22;;;;;;;22.40;18.97;;;;;;;21.33;95.45;94316.28;5054173;28;20495;-78
2022/08/14 08:36:48;;;;;;;23.57;18.10;;;;;;;21.39;94.45;94314.59;5035378;28;20486;-79
2022/08/14 08:39:15;;;;;;;25.03;19.63;;;;;;;21.30;94.53;94312.19;5018889;28;20450;-79
2022/08/14 08:41:45;;;;;;;23.07;18.07;;;;;;;21.38;93.32;94308.44;5054248;28;20426;-78
2022/08/14 08:44:12;;;;;;;19.60;17.50;;;;;;;21.18;94.02;94313.00;5054303;28;20536;-78
2022/08/14 08:46:41;;;;;;;22.63;17.00;;;;;;;21.29;93.40;94315.06;5053743;28;20457;-79
2022/08/14 08:49:09;;;;;;;18.83;16.93;;;;;;;21.39;92.45;94315.44;5054286;28;20529;-78
2022/08/14 08:51:38;;;;;;;22.43;18.00;;;;;;;21.38;93.12;94316.47;5054230;28;20504;-77
2022/08/14 08:54:07;;;;;;;17.70;15.80;;;;;;;21.26;90.48;94312.81;5054437;28;20536;-78
2022/08/14 08:56:39;;;;;;;18.80;16.90;;;;;;;21.24;90.94;94306.88;5053997;28;20489;-78
2022/08/14 08:59:19;;;;;;;17.50;15.47;;;;;;;21.36;91.02;94305.16;5054162;28;20485;-78
2022/08/14 09:01:52;;;;;;;15.37;13.87;;;;;;;21.52;90.70;94299.38;5053644;28;20522;-77
2022/08/14 09:04:20;;;;;;;18.67;16.67;;;;;;;21.47;89.79;94301.06;5053972;28;20445;-78
2022/08/14 09:06:49;;;;;;;18.53;15.90;;;;;;;21.36;90.28;94294.50;5054020;28;20453;-78
2022/08/14 09:09:20;;;;;;;17.80;16.03;;;;;;;21.13;90.94;94289.63;5053775;28;20481;-77
2022/08/14 09:11:47;;;;;;;20.67;16.50;;;;;;;21.09;92.67;94287.56;5053867;28;20449;-78
2022/08/14 09:14:14;;;;;;;17.10;15.30;;;;;;;21.26;92.42;94292.28;5053321;28;20454;-77
2022/08/14 09:16:43;;;;;;;16.13;13.73;;;;;;;21.47;91.57;94285.03;5053397;28;20481;-78
2022/08/14 09:19:11;;;;;;;13.83;12.40;;;;;;;21.68;89.88;94295.38;5053409;28;20933;-79
2022/08/14 09:21:39;;;;;;;16.20;14.57;;;;;;;21.61;89.07;94284.75;5053236;28;20924;-80
2022/08/14 09:24:06;;;;;;;15.83;14.00;;;;;;;21.49;89.29;94281.13;5053481;28;20442;-80
2022/08/14 09:26:33;;;;;;;17.10;15.30;;;;;;;21.29;91.09;94288.38;5053550;28;20805;-78
2022/08/14 09:29:00;;;;;;;16.13;13.97;;;;;;;21.37;90.08;94285.47;5053573;28;20442;-78
2022/08/14 09:31:29;;;;;;;16.50;13.90;;;;;;;21.37;90.24;94277.44;5053545;28;20444;-78
2022/08/14 09:34:07;;;;;;;17.60;15.90;;;;;;;21.67;90.40;94274.25;5053324;28;20485;-78
2022/08/14 09:36:43;;;;;;;12.97;11.77;;;;;;;21.59;88.12;94286.81;5053116;28;20481;-78
2022/08/14 09:39:24;;;;;;;16.07;13.97;;;;;;;21.84;87.48;94289.56;5052802;28;20947;-78
2022/08/14 09:42:14;;;;;;;13.20;11.90;;;;;;;21.99;86.83;94291.97;5052786;28;20533;-77
2022/08/14 09:44:47;;;;;;;17.67;13.37;;;;;;;22.18;85.24;94293.72;5017887;28;20442;-77
2022/08/14 09:47:15;;;;;;;12.03;10.87;;;;;;;22.56;85.25;94287.47;5052726;28;20461;-80
2022/08/14 09:49:44;;;;;;;11.93;10.73;;;;;;;22.93;83.20;94288.41;5052834;28;20442;-79
2022/08/14 09:52:12;;;;;;;12.60;11.40;;;;;;;22.97;82.23;94294.13;5053048;28;20500;-78
2022/08/14 09:54:42;;;;;;;14.97;13.47;;;;;;;23.10;82.45;94283.28;5052987;28;20453;-78
2022/08/14 09:57:12;;;;;;;12.53;11.30;;;;;;;23.15;80.20;94278.94;5052601;28;20489;-78
2022/08/14 09:59:44;;;;;;;11.07;9.97;;;;;;;23.10;79.79;94297.50;5052051;28;20998;-78
2022/08/14 10:02:22;;;;;;;10.57;9.57;;;;;;;23.18;79.39;94296.41;5052496;28;20526;-78
2022/08/14 10:05:01;;;;;;;11.30;9.70;;;;;;;22.98;79.35;94287.75;5052354;28;20944;-78
2022/08/14 10:07:33;;;;;;;11.03;9.93;;;;;;;22.96;79.92;94285.28;5052832;28;20442;-78
2022/08/14 10:10:00;;;;;;;12.60;10.20;;;;;;;22.93;78.40;94282.25;5052540;28;20476;-77
2022/08/14 10:12:44;;;;;;;10.20;9.07;;;;;;;22.95;78.48;94293.53;5054187;28;20437;-78
2022/08/14 10:15:19;;;;;;;9.60;8.70;;;;;;;22.96;78.41;94292.50;5054434;28;20484;-78
2022/08/14 10:17:47;;;;;;;9.87;8.97;;;;;;;23.10;77.45;94302.03;5052336;28;20533;-78
2022/08/14 10:20:19;;;;;;;9.40;8.60;;;;;;;23.19;77.74;94298.03;5052500;28;20453;-78
2022/08/14 10:22:48;;;;;;;10.10;9.10;;;;;;;23.20;75.73;94282.78;5052416;28;20460;-80
2022/08/14 10:25:16;;;;;;;10.60;9.67;;;;;;;23.35;76.10;94272.50;5052058;28;20939;-79
2022/08/14 10:27:45;;;;;;;9.30;8.40;;;;;;;23.54;74.45;94267.97;5052375;28;20445;-79
2022/08/14 10:30:16;;;;;;;8.20;7.57;;;;;;;23.84;75.78;94270.72;5017507;28;20496;-80
2022/08/14 10:32:45;;;;;;;8.83;7.93;;;;;;;24.07;73.28;94268.94;5016786;28;20441;-78
2022/08/14 10:35:13;;;;;;;8.73;8.03;;;;;;;24.17;72.95;94270.25;5052052;28;20445;-80
2022/08/14 10:37:47;;;;;;;9.60;8.80;;;;;;;24.10;73.70;94265.00;5051991;28;20482;-79
2022/08/14 10:40:16;;;;;;;8.60;7.80;;;;;;;24.24;73.03;94258.38;5052330;28;20449;-79
2022/08/14 10:42:45;;;;;;;8.50;7.83;;;;;;;24.49;72.50;94258.22;5051920;28;20986;-78
2022/08/14 10:45:20;;;;;;;10.53;8.17;;;;;;;24.58;72.65;94248.81;5052053;28;20483;-80
2022/08/14 10:47:48;;;;;;;9.97;9.07;;;;;;;24.51;70.73;94252.63;5051963;28;20472;-80
2022/08/14 10:50:16;;;;;;;9.40;8.40;;;;;;;24.28;70.78;94240.78;5052124;28;20452;-78
2022/08/14 10:52:45;;;;;;;10.83;9.90;;;;;;;24.25;71.39;94243.09;5051743;28;20955;-80
2022/08/14 10:55:14;;;;;;;11.13;10.07;;;;;;;24.00;72.48;94236.06;5051887;28;20516;-79
2022/08/14 10:57:50;;;;;;;11.37;10.20;;;;;;;23.94;73.53;94236.13;5051631;28;20497;-79
2022/08/14 11:00:18;;;;;;;10.23;9.20;;;;;;;23.91;75.05;94234.72;5051614;28;20544;-78
2022/08/14 11:02:56;;;;;;;11.60;10.40;;;;;;;23.84;75.23;94222.47;5033149;28;20442;-80
2022/08/14 11:05:26;;;;;;;10.53;9.63;;;;;;;23.63;74.49;94221.13;5052300;28;20452;-79
2022/08/14 11:08:00;;;;;;;10.43;9.40;;;;;;;23.59;76.89;94219.94;5051731;28;20481;-79
2022/08/14 11:10:40;;;;;;;10.30;9.30;;;;;;;23.54;76.50;94223.25;5052701;28;20445;-79
2022/08/14 11:13:08;;;;;;;9.80;9.00;;;;;;;23.54;76.48;94211.72;5055530;28;20445;-79
2022/08/14 11:15:36;;;;;;;8.43;7.80;;;;;;;23.43;76.03;94216.81;5055978;28;20434;-79
2022/08/14 11:18:04;;;;;;;8.67;7.87;;;;;;;23.33;76.25;94216.50;5055883;28;20543;-79
2022/08/14 11:20:31;;;;;;;8.73;7.83;;;;;;;23.35;76.78;94210.94;5055881;28;20456;-79
2022/08/14 11:23:02;;;;;;;10.73;7.77;;;;;;;23.36;76.70;94215.25;5055893;28;20465;-79
2022/08/14 11:25:30;;;;;;;9.13;8.10;;;;;;;23.39;76.67;94214.78;5055452;28;20815;-79
2022/08/14 11:27:59;;;;;;;10.73;9.00;;;;;;;23.35;77.18;94214.44;5055526;28;20531;-79
2022/08/14 11:30:28;;;;;;;10.80;9.90;;;;;;;23.24;77.03;94209.84;5055731;28;20446;-79
2022/08/14 11:32:55;;;;;;;8.97;8.10;;;;;;;23.22;75.67;94217.28;5055432;28;20499;-79
2022/08/14 11:35:25;;;;;;;9.20;8.30;;;;;;;23.20;76.50;94227.41;5020094;28;20452;-80
2022/08/14 11:37:53;;;;;;;11.20;8.70;;;;;;;23.22;76.66;94219.97;5055122;28;20485;-79
2022/08/14 11:40:26;;;;;;;11.23;10.13;;;;;;;23.28;76.57;94224.41;5055468;28;20441;-79